Terminal Aerodrome Forecast
Issued by NWS Greer, SC

Home | Current Version | Previous Version | Text Only | Print | Product List | Glossary On
Versions: 1 2 3 4 5 6 7 8 9 10 11 12 13 14 15 16 17 18 19 20 21 22 23 24 25 26 27 28 29 30 31 32 33 34 35 36 37 38 39 40 41 42 43 44 45 46 47 48
000
FTUS42 KGSP 181730
TAFAVL
TAF
KAVL 181730Z 1818/1918 25006KT P6SM BKN040
      TEMPO 1818/1822 VRB10G20KT 4SM TSRA BKN025CB
     FM182200 33008KT P6SM SCT035 BKN100
     FM190500 34006KT P6SM FEW250
     FM190700 34005KT 5SM BR FEW015
     FM191300 35006KT P6SM FEW035=

USA.gov is the U.S. government's official web portal to all federal, state and local government web resources and services.